Time,TemperatureF,DewpointF,PressureIn,WindDirection,WindDirectionDegrees,WindSpeedMPH,WindSpeedGustMPH,Humidity,HourlyPrecipIn,Conditions,Clouds,dailyrainin,SoftwareType,DateUTC
2013-06-08 00:00:00,59.9,51.2,29.96,East,86,1.0,3.0,73,0.00,CLR,,0.00,WeatherDisplay:10.37,2013-06-08 05:00:00,
2013-06-08 00:10:00,59.8,51.1,29.96,East,94,1.0,3.0,73,0.00,CLR,,0.00,WeatherDisplay:10.37,2013-06-08 05:10:00,
2013-06-08 00:15:00,59.8,51.1,29.96,East,97,1.0,3.0,73,0.00,CLR,,0.00,WeatherDisplay:10.37,2013-06-08 05:15:00,
2013-06-08 00:20:00,59.7,51.0,29.96,East,97,0.0,2.0,73,0.00,CLR,,0.00,WeatherDisplay:10.37,2013-06-08 05:20:00,
2013-06-08 00:25:00,59.7,51.4,29.96,East,97,1.0,3.0,74,0.00,CLR,,0.00,WeatherDisplay:10.37,2013-06-08 05:25:00,
2013-06-08 00:30:00,59.6,51.3,29.96,East,97,1.0,3.0,74,0.00,CLR,,0.00,WeatherDisplay:10.37,2013-06-08 05:30:00,
2013-06-08 00:40:00,59.6,51.3,29.96,East,97,1.0,3.0,74,0.00,CLR,,0.00,WeatherDisplay:10.37,2013-06-08 05:40:00,
2013-06-08 00:45:00,59.6,51.3,29.96,East,98,0.0,2.0,74,0.00,CLR,,0.00,WeatherDisplay:10.37,2013-06-08 05:45:00,
2013-06-08 00:50:00,59.4,51.1,29.95,East,98,1.0,3.0,74,0.00,CLR,,0.00,WeatherDisplay:10.37,2013-06-08 05:50:00,
2013-06-08 00:55:00,59.3,51.0,29.95,East,98,0.0,3.0,74,0.00,CLR,,0.00,WeatherDisplay:10.37,2013-06-08 05:55:00,
2013-06-08 01:00:00,59.3,51.0,29.95,East,100,1.0,2.0,74,0.00,CLR,,0.00,WeatherDisplay:10.37,2013-06-08 06:00:00,
2013-06-08 01:10:00,59.0,50.8,29.95,East,100,0.0,1.0,74,0.00,CLR,,0.00,WeatherDisplay:10.37,2013-06-08 06:10:00,
2013-06-08 01:15:00,59.0,51.0,29.95,East,100,1.0,3.0,75,0.00,CLR,,0.00,WeatherDisplay:10.37,2013-06-08 06:15:00,
2013-06-08 01:20:00,59.0,51.0,29.95,East,100,0.0,2.0,75,0.00,CLR,,0.00,WeatherDisplay:10.37,2013-06-08 06:20:00,
2013-06-08 01:25:00,58.9,50.9,29.94,East,100,1.0,3.0,75,0.00,CLR,,0.00,WeatherDisplay:10.37,2013-06-08 06:25:00,
2013-06-08 01:30:00,58.9,50.9,29.94,East,100,1.0,5.0,75,0.00,CLR,,0.00,WeatherDisplay:10.37,2013-06-08 06:30:00,
2013-06-08 01:40:00,58.7,50.8,29.94,ESE,102,1.0,3.0,75,0.00,CLR,,0.00,WeatherDisplay:10.37,2013-06-08 06:40:00,
2013-06-08 01:50:00,58.6,50.7,29.94,ESE,103,1.0,5.0,75,0.00,CLR,,0.00,WeatherDisplay:10.37,2013-06-08 06:50:00,
2013-06-08 02:00:00,58.4,50.8,29.93,ESE,105,1.0,4.0,76,0.00,CLR,,0.00,WeatherDisplay:10.37,2013-06-08 07:00:00,
2013-06-08 02:10:00,58.1,50.6,29.93,ESE,105,0.0,2.0,76,0.00,CLR,,0.00,WeatherDisplay:10.37,2013-06-08 07:10:00,
2013-06-08 02:15:00,58.0,50.8,29.93,ESE,105,1.0,6.0,77,0.00,CLR,,0.00,WeatherDisplay:10.37,2013-06-08 07:15:00,
2013-06-08 02:20:00,57.8,50.7,29.93,ESE,105,0.0,1.0,77,0.00,CLR,,0.00,WeatherDisplay:10.37,2013-06-08 07:20:00,
2013-06-08 02:30:00,57.8,50.6,29.92,ESE,105,1.0,2.0,77,0.00,CLR,,0.00,WeatherDisplay:10.37,2013-06-08 07:30:00,
2013-06-08 02:35:00,57.7,50.5,29.92,ESE,105,1.0,2.0,77,0.00,CLR,,0.00,WeatherDisplay:10.37,2013-06-08 07:35:00,
2013-06-08 02:40:00,57.6,50.5,29.92,ESE,105,1.0,4.0,77,0.00,CLR,,0.00,WeatherDisplay:10.37,2013-06-08 07:40:00,
2013-06-08 02:45:00,57.5,50.7,29.91,ESE,105,2.0,3.0,78,0.00,CLR,,0.00,WeatherDisplay:10.37,2013-06-08 07:45:00,
2013-06-08 02:50:00,57.4,50.6,29.92,ESE,105,1.0,3.0,78,0.00,CLR,,0.00,WeatherDisplay:10.37,2013-06-08 07:50:00,
2013-06-08 03:00:00,57.2,50.7,29.91,ESE,105,1.0,3.0,79,0.00,CLR,,0.00,WeatherDisplay:10.37,2013-06-08 08:00:00,
2013-06-08 03:10:00,56.8,50.4,29.91,ESE,105,1.0,3.0,79,0.00,CLR,,0.00,WeatherDisplay:10.37,2013-06-08 08:10:00,
2013-06-08 03:15:00,56.7,50.2,29.91,ESE,105,1.0,3.0,79,0.00,CLR,,0.00,WeatherDisplay:10.37,2013-06-08 08:15:00,
2013-06-08 03:20:00,56.6,50.5,29.91,ESE,105,1.0,2.0,80,0.00,CLR,,0.00,WeatherDisplay:10.37,2013-06-08 08:20:00,
2013-06-08 03:25:00,56.5,50.4,29.91,ESE,106,1.0,3.0,80,0.00,CLR,,0.00,WeatherDisplay:10.37,2013-06-08 08:25:00,
2013-06-08 03:30:00,56.4,50.3,29.91,ESE,107,1.0,4.0,80,0.00,CLR,,0.00,WeatherDisplay:10.37,2013-06-08 08:30:00,
2013-06-08 03:40:00,56.4,50.3,29.91,SE,135,2.0,5.0,80,0.00,CLR,,0.00,WeatherDisplay:10.37,2013-06-08 08:40:00,
2013-06-08 03:45:00,56.7,50.6,29.91,SSE,155,3.0,5.0,80,0.00,CLR,,0.00,WeatherDisplay:10.37,2013-06-08 08:45:00,
2013-06-08 03:50:00,56.8,50.3,29.91,SSE,159,2.0,5.0,79,0.00,CLR,,0.00,WeatherDisplay:10.37,2013-06-08 08:50:00,
2013-06-08 03:55:00,56.8,50.3,29.92,SSE,160,2.0,4.0,79,0.00,CLR,,0.00,WeatherDisplay:10.37,2013-06-08 08:55:00,
2013-06-08 04:00:00,56.7,50.3,29.92,SSE,163,2.0,4.0,79,0.00,CLR,,0.00,WeatherDisplay:10.37,2013-06-08 09:00:00,
2013-06-08 04:10:00,56.6,50.5,29.92,SSE,164,2.0,4.0,80,0.00,CLR,,0.00,WeatherDisplay:10.37,2013-06-08 09:10:00,
2013-06-08 04:15:00,56.5,50.4,29.92,SSE,163,2.0,5.0,80,0.00,CLR,,0.00,WeatherDisplay:10.37,2013-06-08 09:15:00,
2013-06-08 04:20:00,56.5,50.4,29.92,SSE,163,2.0,4.0,80,0.00,CLR,,0.00,WeatherDisplay:10.37,2013-06-08 09:20:00,
2013-06-08 04:25:00,56.4,50.3,29.92,SSE,163,1.0,3.0,80,0.00,CLR,,0.00,WeatherDisplay:10.37,2013-06-08 09:25:00,
2013-06-08 04:30:00,56.1,50.0,29.91,SSE,164,1.0,2.0,80,0.00,CLR,,0.00,WeatherDisplay:10.37,2013-06-08 09:30:00,
2013-06-08 04:40:00,55.6,50.2,29.91,SSE,161,2.0,3.0,82,0.00,CLR,,0.00,WeatherDisplay:10.37,2013-06-08 09:40:00,
2013-06-08 04:45:00,55.5,50.1,29.91,SSE,159,1.0,4.0,82,0.00,CLR,,0.00,WeatherDisplay:10.37,2013-06-08 09:45:00,
2013-06-08 04:50:00,55.3,49.9,29.91,SSE,154,2.0,3.0,82,0.00,CLR,,0.00,WeatherDisplay:10.37,2013-06-08 09:50:00,
2013-06-08 04:55:00,55.3,50.2,29.91,SSE,154,2.0,6.0,83,0.00,CLR,,0.00,WeatherDisplay:10.37,2013-06-08 09:55:00,
2013-06-08 05:00:00,55.4,50.3,29.92,SSE,156,2.0,5.0,83,0.00,CLR,,0.00,WeatherDisplay:10.37,2013-06-08 10:00:00,
2013-06-08 05:10:00,55.5,50.1,29.92,SSE,160,2.0,5.0,82,0.00,CLR,,0.00,WeatherDisplay:10.37,2013-06-08 10:10:00,
2013-06-08 05:15:00,55.2,50.2,29.92,SSE,161,2.0,3.0,83,0.00,CLR,,0.00,WeatherDisplay:10.37,2013-06-08 10:15:00,
2013-06-08 05:20:00,54.9,49.8,29.91,SSE,161,1.0,4.0,83,0.00,CLR,,0.00,WeatherDisplay:10.37,2013-06-08 10:20:00,
2013-06-08 05:25:00,54.7,49.9,29.91,SSE,160,2.0,3.0,84,0.00,CLR,,0.00,WeatherDisplay:10.37,2013-06-08 10:25:00,
2013-06-08 05:30:00,54.6,49.8,29.91,SSE,159,2.0,4.0,84,0.00,CLR,,0.00,WeatherDisplay:10.37,2013-06-08 10:30:00,
2013-06-08 05:40:00,54.6,49.8,29.91,SSE,158,2.0,6.0,84,0.00,CLR,,0.00,WeatherDisplay:10.37,2013-06-08 10:40:00,
2013-06-08 05:45:00,54.6,49.8,29.91,SSE,161,3.0,6.0,84,0.00,CLR,,0.00,WeatherDisplay:10.37,2013-06-08 10:45:00,
2013-06-08 05:50:00,54.6,49.9,29.91,SSE,163,3.0,7.0,84,0.00,CLR,,0.00,WeatherDisplay:10.37,2013-06-08 10:50:00,
2013-06-08 06:00:00,54.7,50.2,29.92,SSE,161,3.0,5.0,85,0.00,CLR,,0.00,WeatherDisplay:10.37,2013-06-08 11:00:00,
2013-06-08 06:10:00,54.8,50.3,29.92,SSE,161,1.0,6.0,85,0.00,CLR,,0.00,WeatherDisplay:10.37,2013-06-08 11:10:00,
2013-06-08 06:15:00,54.8,50.4,29.93,SSE,161,1.0,4.0,85,0.00,CLR,,0.00,WeatherDisplay:10.37,2013-06-08 11:15:00,
2013-06-08 06:20:00,54.9,50.5,29.93,SSE,161,1.0,3.0,85,0.00,CLR,,0.00,WeatherDisplay:10.37,2013-06-08 11:20:00,
2013-06-08 06:30:00,55.1,50.7,29.93,SSE,161,1.0,4.0,85,0.00,CLR,,0.00,WeatherDisplay:10.37,2013-06-08 11:30:00,
2013-06-08 06:40:00,55.4,50.6,29.93,SSE,161,0.0,3.0,84,0.00,CLR,,0.00,WeatherDisplay:10.37,2013-06-08 11:40:00,
2013-06-08 06:50:00,55.6,50.8,29.93,SSE,161,1.0,3.0,84,0.00,CLR,,0.00,WeatherDisplay:10.37,2013-06-08 11:50:00,
2013-06-08 07:00:00,56.4,51.7,29.93,SSE,160,1.0,3.0,84,0.00,CLR,,0.00,WeatherDisplay:10.37,2013-06-08 12:00:00,
2013-06-08 07:10:00,57.5,52.4,29.92,SSE,159,2.0,4.0,83,0.00,FEW,,0.00,WeatherDisplay:10.37,2013-06-08 12:10:00,
2013-06-08 07:20:00,58.2,52.7,29.92,SSE,163,2.0,6.0,82,0.00,FEW,,0.00,WeatherDisplay:10.37,2013-06-08 12:20:00,
2013-06-08 07:30:00,59.1,53.2,29.92,SSE,165,2.0,8.0,81,0.00,FEW,,0.00,WeatherDisplay:10.37,2013-06-08 12:30:00,
2013-06-08 07:40:00,60.1,53.9,29.93,South,180,3.0,7.0,80,0.00,FEW,,0.00,WeatherDisplay:10.37,2013-06-08 12:40:00,
2013-06-08 07:50:00,61.2,54.0,29.93,South,185,5.0,9.0,77,0.00,FEW,,0.00,WeatherDisplay:10.37,2013-06-08 12:50:00,
2013-06-08 08:00:00,62.1,54.1,29.93,South,186,5.0,9.0,75,0.00,FEW,,0.00,WeatherDisplay:10.37,2013-06-08 13:00:00,
2013-06-08 08:10:00,62.6,54.2,29.92,South,187,5.0,10.0,74,0.00,BKN,,0.00,WeatherDisplay:10.37,2013-06-08 13:10:00,
2013-06-08 08:20:00,63.1,53.9,29.92,South,176,5.0,10.0,72,0.00,BKN,,0.00,WeatherDisplay:10.37,2013-06-08 13:20:00,
2013-06-08 08:30:00,63.5,54.7,29.92,South,186,5.0,9.0,73,0.00,BKN,,0.00,WeatherDisplay:10.37,2013-06-08 13:30:00,
2013-06-08 08:35:00,64.0,54.8,29.92,South,188,3.0,12.0,72,0.00,BKN,,0.00,WeatherDisplay:10.37,2013-06-08 13:35:00,
2013-06-08 08:45:00,64.3,54.7,29.92,South,178,3.0,10.0,71,0.00,BKN,,0.00,WeatherDisplay:10.37,2013-06-08 13:45:00,
2013-06-08 08:50:00,64.0,54.4,29.93,South,187,5.0,8.0,71,0.00,BKN,,0.00,WeatherDisplay:10.37,2013-06-08 13:50:00,
2013-06-08 08:55:00,63.9,54.3,29.93,South,185,5.0,9.0,71,0.00,BKN,,0.00,WeatherDisplay:10.37,2013-06-08 13:55:00,
2013-06-08 09:00:00,64.1,55.2,29.93,South,177,2.0,7.0,73,0.00,BKN,,0.00,WeatherDisplay:10.37,2013-06-08 14:00:00,
2013-06-08 09:10:00,64.5,54.9,29.93,South,180,3.0,10.0,71,0.00,OVC,,0.00,WeatherDisplay:10.37,2013-06-08 14:10:00,
2013-06-08 09:15:00,64.8,55.2,29.93,South,181,5.0,9.0,71,0.00,OVC,,0.00,WeatherDisplay:10.37,2013-06-08 14:15:00,
2013-06-08 09:20:00,65.1,55.5,29.92,South,186,5.0,8.0,71,0.00,OVC,,0.00,WeatherDisplay:10.37,2013-06-08 14:20:00,
2013-06-08 09:25:00,65.5,55.5,29.92,South,187,3.0,10.0,70,0.00,OVC,,0.00,WeatherDisplay:10.37,2013-06-08 14:25:00,
2013-06-08 09:30:00,66.2,56.2,29.92,South,179,6.0,10.0,70,0.00,OVC,,0.00,WeatherDisplay:10.37,2013-06-08 14:30:00,
2013-06-08 09:40:00,66.8,55.4,29.92,South,188,5.0,9.0,67,0.00,OVC,,0.00,WeatherDisplay:10.37,2013-06-08 14:40:00,
2013-06-08 09:45:00,66.9,55.6,29.92,South,185,5.0,9.0,67,0.00,OVC,,0.00,WeatherDisplay:10.37,2013-06-08 14:45:00,
2013-06-08 09:50:00,67.3,56.0,29.92,South,187,3.0,7.0,67,0.00,OVC,,0.00,WeatherDisplay:10.37,2013-06-08 14:50:00,
2013-06-08 09:55:00,67.8,56.4,29.92,South,188,5.0,10.0,67,0.00,OVC,,0.00,WeatherDisplay:10.37,2013-06-08 14:55:00,
2013-06-08 10:00:00,68.2,55.5,29.92,South,186,6.0,10.0,64,0.00,OVC,,0.00,WeatherDisplay:10.37,2013-06-08 15:00:00,
2013-06-08 10:10:00,68.9,55.7,29.92,South,188,7.0,13.0,63,0.00,OVC,,0.00,WeatherDisplay:10.37,2013-06-08 15:10:00,
2013-06-08 10:15:00,68.7,55.1,29.92,South,185,6.0,13.0,62,0.00,OVC,,0.00,WeatherDisplay:10.37,2013-06-08 15:15:00,
2013-06-08 10:20:00,69.0,55.9,29.92,South,189,5.0,13.0,63,0.00,OVC,,0.00,WeatherDisplay:10.37,2013-06-08 15:20:00,
2013-06-08 10:30:00,69.2,55.1,29.91,South,182,6.0,12.0,61,0.00,OVC,,0.00,WeatherDisplay:10.37,2013-06-08 15:30:00,
2013-06-08 10:35:00,69.5,55.0,29.91,South,185,8.0,12.0,60,0.00,OVC,,0.00,WeatherDisplay:10.37,2013-06-08 15:35:00,
2013-06-08 10:40:00,70.0,56.4,29.91,South,189,7.0,17.0,62,0.00,OVC,,0.00,WeatherDisplay:10.37,2013-06-08 15:40:00,
2013-06-08 10:45:00,70.2,55.6,29.91,South,188,7.0,17.0,60,0.00,OVC,,0.00,WeatherDisplay:10.37,2013-06-08 15:45:00,
2013-06-08 10:50:00,70.6,56.5,29.91,South,186,7.0,15.0,61,0.00,OVC,,0.00,WeatherDisplay:10.37,2013-06-08 15:50:00,
2013-06-08 11:00:00,71.4,56.8,29.90,South,188,5.0,12.0,60,0.00,OVC,,0.00,WeatherDisplay:10.37,2013-06-08 16:00:00,
2013-06-08 11:10:00,72.5,56.9,29.89,South,187,7.0,12.0,58,0.00,OVC,,0.00,WeatherDisplay:10.37,2013-06-08 16:10:00,
2013-06-08 11:15:00,72.3,56.7,29.89,South,185,6.0,14.0,58,0.00,OVC,,0.00,WeatherDisplay:10.37,2013-06-08 16:15:00,
2013-06-08 11:20:00,72.2,56.6,29.89,South,177,8.0,12.0,58,0.00,OVC,,0.00,WeatherDisplay:10.37,2013-06-08 16:20:00,
2013-06-08 11:30:00,72.9,57.7,29.88,South,183,6.0,12.0,59,0.00,OVC,,0.00,WeatherDisplay:10.37,2013-06-08 16:30:00,
2013-06-08 11:40:00,73.7,56.1,29.88,South,174,8.0,16.0,54,0.00,OVC,,0.00,WeatherDisplay:10.37,2013-06-08 16:40:00,
2013-06-08 11:45:00,73.6,57.0,29.88,South,173,8.0,15.0,56,0.00,OVC,,0.00,WeatherDisplay:10.37,2013-06-08 16:45:00,
2013-06-08 11:50:00,73.9,57.2,29.88,South,182,7.0,16.0,56,0.00,OVC,,0.00,WeatherDisplay:10.37,2013-06-08 16:50:00,
2013-06-08 12:00:00,73.7,57.6,29.87,South,178,7.0,16.0,57,0.00,OVC,,0.00,WeatherDisplay:10.37,2013-06-08 17:00:00,
2013-06-08 12:10:00,73.8,57.6,29.87,South,172,7.0,14.0,57,0.00,FEW,,0.00,WeatherDisplay:10.37,2013-06-08 17:10:00,
2013-06-08 12:15:00,74.2,57.5,29.87,SSE,166,8.0,17.0,56,0.00,FEW,,0.00,WeatherDisplay:10.37,2013-06-08 17:15:00,
2013-06-08 12:20:00,74.4,57.7,29.86,SSE,162,8.0,17.0,56,0.00,FEW,,0.00,WeatherDisplay:10.37,2013-06-08 17:20:00,
2013-06-08 12:30:00,74.1,56.9,29.86,South,174,9.0,16.0,55,0.00,FEW,,0.00,WeatherDisplay:10.37,2013-06-08 17:30:00,
2013-06-08 12:35:00,74.5,57.8,29.86,South,184,6.0,14.0,56,0.00,FEW,,0.00,WeatherDisplay:10.37,2013-06-08 17:35:00,
2013-06-08 12:40:00,74.7,56.9,29.86,South,187,8.0,14.0,54,0.00,FEW,,0.00,WeatherDisplay:10.37,2013-06-08 17:40:00,
2013-06-08 12:45:00,74.9,57.6,29.86,South,178,9.0,17.0,55,0.00,FEW,,0.00,WeatherDisplay:10.37,2013-06-08 17:45:00,
2013-06-08 12:50:00,75.0,57.2,29.85,South,178,9.0,17.0,54,0.00,FEW,,0.00,WeatherDisplay:10.37,2013-06-08 17:50:00,
2013-06-08 13:00:00,75.0,58.2,29.85,South,172,6.0,18.0,56,0.00,FEW,,0.00,WeatherDisplay:10.37,2013-06-08 18:00:00,
2013-06-08 13:10:00,75.3,58.5,29.85,South,170,6.0,13.0,56,0.00,CLR,,0.00,WeatherDisplay:10.37,2013-06-08 18:10:00,
2013-06-08 13:20:00,75.4,58.6,29.85,South,175,6.0,13.0,56,0.00,CLR,,0.00,WeatherDisplay:10.37,2013-06-08 18:20:00,
2013-06-08 13:30:00,75.8,59.0,29.84,South,174,6.0,14.0,56,0.00,CLR,,0.00,WeatherDisplay:10.37,2013-06-08 18:30:00,
2013-06-08 13:40:00,76.4,58.5,29.83,South,180,8.0,14.0,54,0.00,CLR,,0.00,WeatherDisplay:10.37,2013-06-08 18:40:00,
2013-06-08 13:45:00,76.6,59.2,29.83,South,172,7.0,13.0,55,0.00,CLR,,0.00,WeatherDisplay:10.37,2013-06-08 18:45:00,
2013-06-08 13:50:00,76.7,58.8,29.83,South,169,12.0,21.0,54,0.00,CLR,,0.00,WeatherDisplay:10.37,2013-06-08 18:50:00,
2013-06-08 14:00:00,76.5,58.1,29.83,South,176,8.0,16.0,53,0.00,CLR,,0.00,WeatherDisplay:10.37,2013-06-08 19:00:00,
2013-06-08 14:10:00,76.4,58.5,29.83,South,175,9.0,17.0,54,0.00,CLR,,0.00,WeatherDisplay:10.37,2013-06-08 19:10:00,
2013-06-08 14:20:00,76.2,58.3,29.82,South,169,9.0,17.0,54,0.00,CLR,,0.00,WeatherDisplay:10.37,2013-06-08 19:20:00,
2013-06-08 14:25:00,75.8,59.0,29.82,South,182,7.0,14.0,56,0.00,CLR,,0.00,WeatherDisplay:10.37,2013-06-08 19:25:00,
2013-06-08 14:30:00,75.7,57.9,29.81,South,177,8.0,21.0,54,0.00,CLR,,0.00,WeatherDisplay:10.37,2013-06-08 19:30:00,
2013-06-08 14:40:00,75.8,57.4,29.81,South,180,8.0,18.0,53,0.00,CLR,,0.00,WeatherDisplay:10.37,2013-06-08 19:40:00,
2013-06-08 14:45:00,76.0,58.1,29.81,South,179,7.0,15.0,54,0.00,CLR,,0.00,WeatherDisplay:10.37,2013-06-08 19:45:00,
2013-06-08 14:50:00,76.1,58.8,29.81,South,177,8.0,18.0,55,0.00,CLR,,0.00,WeatherDisplay:10.37,2013-06-08 19:50:00,
2013-06-08 14:55:00,76.4,58.5,29.81,South,175,8.0,20.0,54,0.00,CLR,,0.00,WeatherDisplay:10.37,2013-06-08 19:55:00,
2013-06-08 15:00:00,76.5,58.6,29.81,South,179,7.0,16.0,54,0.00,CLR,,0.00,WeatherDisplay:10.37,2013-06-08 20:00:00,
2013-06-08 15:10:00,76.4,58.5,29.81,South,181,10.0,20.0,54,0.00,FEW,,0.00,WeatherDisplay:10.37,2013-06-08 20:10:00,
2013-06-08 15:15:00,76.3,59.4,29.80,South,179,8.0,20.0,56,0.00,FEW,,0.00,WeatherDisplay:10.37,2013-06-08 20:15:00,
2013-06-08 15:20:00,76.1,58.2,29.80,South,184,9.0,24.0,54,0.00,FEW,,0.00,WeatherDisplay:10.37,2013-06-08 20:20:00,
2013-06-08 15:30:00,76.0,58.6,29.80,South,181,8.0,15.0,55,0.00,FEW,,0.00,WeatherDisplay:10.37,2013-06-08 20:30:00,
2013-06-08 15:40:00,76.1,58.3,29.80,South,177,8.0,16.0,54,0.00,FEW,,0.00,WeatherDisplay:10.37,2013-06-08 20:40:00,
2013-06-08 15:45:00,76.4,58.5,29.80,South,176,9.0,16.0,54,0.00,FEW,,0.00,WeatherDisplay:10.37,2013-06-08 20:45:00,
2013-06-08 15:50:00,76.5,58.6,29.80,South,179,8.0,17.0,54,0.00,FEW,,0.00,WeatherDisplay:10.37,2013-06-08 20:50:00,
2013-06-08 15:55:00,76.7,58.8,29.79,South,177,8.0,14.0,54,0.00,FEW,,0.00,WeatherDisplay:10.37,2013-06-08 20:55:00,
2013-06-08 16:00:00,76.8,59.4,29.79,South,177,8.0,15.0,55,0.00,FEW,,0.00,WeatherDisplay:10.37,2013-06-08 21:00:00,
2013-06-08 16:10:00,77.0,59.6,29.79,South,175,8.0,13.0,55,0.00,FEW,,0.00,WeatherDisplay:10.37,2013-06-08 21:10:00,
2013-06-08 16:20:00,76.7,59.3,29.79,South,182,7.0,16.0,55,0.00,FEW,,0.00,WeatherDisplay:10.37,2013-06-08 21:20:00,
2013-06-08 16:25:00,76.7,59.3,29.79,South,173,9.0,17.0,55,0.00,FEW,,0.00,WeatherDisplay:10.37,2013-06-08 21:25:00,
2013-06-08 16:30:00,76.7,59.8,29.79,South,176,7.0,13.0,56,0.00,FEW,,0.00,WeatherDisplay:10.37,2013-06-08 21:30:00,
2013-06-08 16:40:00,77.0,60.1,29.79,South,177,7.0,16.0,56,0.00,FEW,,0.00,WeatherDisplay:10.37,2013-06-08 21:40:00,
2013-06-08 16:45:00,77.2,60.3,29.79,South,181,6.0,15.0,56,0.00,FEW,,0.00,WeatherDisplay:10.37,2013-06-08 21:45:00,
2013-06-08 16:55:00,78.5,60.4,29.78,South,180,9.0,15.0,54,0.00,FEW,,0.00,WeatherDisplay:10.37,2013-06-08 21:55:00,
2013-06-08 17:00:00,78.5,60.4,29.78,South,183,8.0,15.0,54,0.00,FEW,,0.00,WeatherDisplay:10.37,2013-06-08 22:00:00,
2013-06-08 17:10:00,78.3,60.8,29.78,South,180,8.0,14.0,55,0.00,FEW,,0.00,WeatherDisplay:10.37,2013-06-08 22:10:00,
2013-06-08 17:20:00,78.7,60.6,29.78,South,182,8.0,13.0,54,0.00,FEW,,0.00,WeatherDisplay:10.37,2013-06-08 22:20:00,
2013-06-08 17:30:00,78.7,61.1,29.77,South,183,7.0,13.0,55,0.00,FEW,,0.00,WeatherDisplay:10.37,2013-06-08 22:30:00,
2013-06-08 17:40:00,78.4,60.9,29.77,South,177,6.0,14.0,55,0.00,FEW,,0.00,WeatherDisplay:10.37,2013-06-08 22:40:00,
2013-06-08 17:45:00,78.4,60.9,29.76,South,174,6.0,14.0,55,0.00,FEW,,0.00,WeatherDisplay:10.37,2013-06-08 22:45:00,
2013-06-08 17:50:00,78.6,61.0,29.75,South,170,8.0,20.0,55,0.00,FEW,,0.00,WeatherDisplay:10.37,2013-06-08 22:50:00,
2013-06-08 17:55:00,78.3,60.8,29.75,South,170,8.0,13.0,55,0.00,FEW,,0.00,WeatherDisplay:10.37,2013-06-08 22:55:00,
2013-06-08 18:00:00,77.6,60.7,29.75,South,170,7.0,12.0,56,0.00,FEW,,0.00,WeatherDisplay:10.37,2013-06-08 23:00:00,
2013-06-08 18:10:00,78.1,60.6,29.75,South,183,8.0,15.0,55,0.00,CLR,,0.00,WeatherDisplay:10.37,2013-06-08 23:10:00,
2013-06-08 18:15:00,77.8,60.9,29.75,South,178,5.0,12.0,56,0.00,CLR,,0.00,WeatherDisplay:10.37,2013-06-08 23:15:00,
2013-06-08 18:20:00,77.6,60.6,29.75,South,170,5.0,15.0,56,0.00,CLR,,0.00,WeatherDisplay:10.37,2013-06-08 23:20:00,
2013-06-08 18:30:00,77.6,60.6,29.75,South,176,7.0,14.0,56,0.00,CLR,,0.00,WeatherDisplay:10.37,2013-06-08 23:30:00,
2013-06-08 18:40:00,76.9,60.5,29.76,South,183,7.0,12.0,57,0.00,CLR,,0.00,WeatherDisplay:10.37,2013-06-08 23:40:00,
2013-06-08 18:45:00,76.4,60.6,29.76,South,186,5.0,10.0,58,0.00,CLR,,0.00,WeatherDisplay:10.37,2013-06-08 23:45:00,
2013-06-08 18:50:00,76.2,60.3,29.75,South,187,6.0,12.0,58,0.00,CLR,,0.00,WeatherDisplay:10.37,2013-06-08 23:50:00,
2013-06-08 18:55:00,76.0,60.6,29.75,South,186,5.0,10.0,59,0.00,CLR,,0.00,WeatherDisplay:10.37,2013-06-08 23:55:00,
2013-06-08 19:00:00,75.9,60.1,29.75,South,181,7.0,16.0,58,0.00,CLR,,0.00,WeatherDisplay:10.37,2013-06-09 00:00:00,
2013-06-08 19:10:00,75.7,60.3,29.76,South,177,6.0,12.0,59,0.00,FEW,,0.00,WeatherDisplay:10.37,2013-06-09 00:10:00,
2013-06-08 19:20:00,75.4,60.1,29.77,South,182,6.0,14.0,59,0.00,FEW,,0.00,WeatherDisplay:10.37,2013-06-09 00:20:00,
2013-06-08 19:30:00,75.4,60.1,29.77,South,187,5.0,12.0,59,0.00,FEW,,0.00,WeatherDisplay:10.37,2013-06-09 00:30:00,
2013-06-08 19:40:00,75.3,59.9,29.78,South,187,7.0,13.0,59,0.00,FEW,,0.00,WeatherDisplay:10.37,2013-06-09 00:40:00,
2013-06-08 19:50:00,75.2,59.4,29.79,South,184,8.0,13.0,58,0.00,FEW,,0.00,WeatherDisplay:10.37,2013-06-09 00:50:00,
2013-06-08 19:55:00,75.1,59.8,29.79,South,187,6.0,10.0,59,0.00,FEW,,0.00,WeatherDisplay:10.37,2013-06-09 00:55:00,
2013-06-08 20:00:00,75.0,59.7,29.80,SSW,196,6.0,12.0,59,0.00,FEW,,0.00,WeatherDisplay:10.37,2013-06-09 01:00:00,
2013-06-08 20:10:00,74.8,59.9,29.80,SSW,200,6.0,14.0,60,0.00,-RA,,0.00,WeatherDisplay:10.37,2013-06-09 01:10:00,
2013-06-08 20:15:00,74.4,59.6,29.81,SSW,192,7.0,12.0,60,0.00,-RA,,0.00,WeatherDisplay:10.37,2013-06-09 01:15:00,
2013-06-08 20:25:00,74.0,60.1,29.80,SSW,199,7.0,12.0,62,0.00,-RA,,0.00,WeatherDisplay:10.37,2013-06-09 01:25:00,
2013-06-08 20:30:00,74.0,59.7,29.80,South,191,7.0,12.0,61,0.00,-RA,,0.00,WeatherDisplay:10.37,2013-06-09 01:30:00,
2013-06-08 20:40:00,73.8,59.5,29.81,South,191,7.0,12.0,61,0.00,-RA,,0.00,WeatherDisplay:10.37,2013-06-09 01:40:00,
2013-06-08 20:50:00,73.4,59.5,29.80,South,187,3.0,10.0,62,0.00,-RA,,0.00,WeatherDisplay:10.37,2013-06-09 01:50:00,
2013-06-08 21:00:00,73.1,59.3,29.80,South,191,5.0,14.0,62,0.00,-RA,,0.00,WeatherDisplay:10.37,2013-06-09 02:00:00,
2013-06-08 21:10:00,73.0,59.7,29.80,SSW,192,6.0,12.0,63,0.00,-RA,,0.00,WeatherDisplay:10.37,2013-06-09 02:10:00,
2013-06-08 21:20:00,73.0,59.7,29.80,South,189,6.0,12.0,63,0.00,-RA,,0.00,WeatherDisplay:10.37,2013-06-09 02:20:00,
2013-06-08 21:25:00,73.0,59.6,29.81,SSW,196,6.0,12.0,63,0.00,-RA,,0.00,WeatherDisplay:10.37,2013-06-09 02:25:00,
2013-06-08 21:30:00,71.7,61.4,29.83,SW,232,6.0,10.0,70,0.03,-RA,,0.03,WeatherDisplay:10.37,2013-06-09 02:30:00,
2013-06-08 21:40:00,65.2,58.5,29.84,SW,224,10.0,18.0,79,0.01,-RA,,0.06,WeatherDisplay:10.37,2013-06-09 02:40:00,
2013-06-08 21:45:00,64.0,58.4,29.85,SW,220,9.0,15.0,82,0.02,-RA,,0.08,WeatherDisplay:10.37,2013-06-09 02:45:00,
2013-06-08 21:50:00,63.2,58.3,29.85,SSW,211,8.0,13.0,84,0.01,-RA,,0.09,WeatherDisplay:10.37,2013-06-09 02:50:00,
2013-06-08 22:00:00,62.3,58.4,29.85,SSW,211,8.0,12.0,87,0.01,-RA,,0.12,WeatherDisplay:10.37,2013-06-09 03:00:00,
2013-06-08 22:10:00,62.1,58.1,29.85,SSW,203,8.0,14.0,87,0.01, +RA,,0.13,WeatherDisplay:10.37,2013-06-09 03:10:00,
2013-06-08 22:15:00,62.1,58.1,29.85,SSW,205,8.0,13.0,87,0.00, +RA,,0.13,WeatherDisplay:10.37,2013-06-09 03:15:00,
2013-06-08 22:20:00,62.0,58.0,29.86,SSW,206,8.0,14.0,87,0.01, +RA,,0.14,WeatherDisplay:10.37,2013-06-09 03:20:00,
2013-06-08 22:30:00,61.7,57.8,29.86,SSW,205,6.0,12.0,87,0.05, +RA,,0.21,WeatherDisplay:10.37,2013-06-09 03:30:00,
2013-06-08 22:40:00,61.5,57.9,29.87,SSW,209,7.0,12.0,88,0.00, +RA,,0.22,WeatherDisplay:10.37,2013-06-09 03:40:00,
2013-06-08 22:45:00,61.6,58.3,29.87,SSW,212,8.0,14.0,89,0.02, +RA,,0.24,WeatherDisplay:10.37,2013-06-09 03:45:00,
2013-06-08 22:50:00,61.8,58.2,29.86,SW,215,8.0,13.0,88,0.02, +RA,,0.26,WeatherDisplay:10.37,2013-06-09 03:50:00,
2013-06-08 22:55:00,61.8,58.2,29.86,SW,217,8.0,16.0,88,0.00, +RA,,0.27,WeatherDisplay:10.37,2013-06-09 03:55:00,
2013-06-08 23:00:00,61.8,58.2,29.86,SW,215,5.0,12.0,88,0.01, +RA,,0.27,WeatherDisplay:10.37,2013-06-09 04:00:00,
2013-06-08 23:05:00,61.8,58.2,29.86,SW,217,5.0,8.0,88,0.00,-RA,,0.27,WeatherDisplay:10.37,2013-06-09 04:05:00,
2013-06-08 23:10:00,61.9,58.3,29.86,SW,228,3.0,7.0,88,0.01,-RA,,0.28,WeatherDisplay:10.37,2013-06-09 04:10:00,
2013-06-08 23:15:00,61.9,58.3,29.86,WSW,239,1.0,7.0,88,0.00,-RA,,0.28,WeatherDisplay:10.37,2013-06-09 04:15:00,
2013-06-08 23:20:00,61.9,58.3,29.86,WSW,252,1.0,5.0,88,0.00,-RA,,0.28,WeatherDisplay:10.37,2013-06-09 04:20:00,
2013-06-08 23:25:00,62.0,58.7,29.86,West,259,2.0,3.0,89,0.01,-RA,,0.29,WeatherDisplay:10.37,2013-06-09 04:25:00,
2013-06-08 23:30:00,62.0,58.4,29.85,West,259,1.0,4.0,88,0.00,-RA,,0.29,WeatherDisplay:10.37,2013-06-09 04:30:00,
2013-06-08 23:40:00,61.9,58.6,29.84,West,259,0.0,1.0,89,0.01,-RA,,0.30,WeatherDisplay:10.37,2013-06-09 04:40:00,
2013-06-08 23:50:00,62.1,58.8,29.85,SSW,203,0.0,2.0,89,0.00,-RA,,0.30,WeatherDisplay:10.37,2013-06-09 04:50:00,
2013-06-08 23:55:00,62.1,59.1,29.85,South,175,0.0,0.0,90,0.00,-RA,,0.30,WeatherDisplay:10.37,2013-06-09 04:55:00,